Weather

Rainfall Maps have ended for the season and will begin again on June 1st.

*Note: Some stations are located near irrigated fields and may also report irrigation

Forrest Carberry Carberry North Wawanesa Glenboro Glenora Treherne Gladstone Portage East High Bluff Elm Creek Carman Winkler Kuhl Farm Morris St.Adolphe Steinbach Selkirk Macdonald Shilo Rivers Somerset Reinland Altona Starbuck St.Pierre Winkler




St. Adolphe - Historical Weather Data
Date Max Temp (°C) Min Temp (°C) Avg Temp (°C) Rain (mm) Avg RH (%) Solar Radiation (W/m2)
4/25/2018 20.5 3.3 12.0 0.1 39.0 21.7
4/24/2018 10.8 -4.2 4.2 0.0 55.0 25.3
4/23/2018 16.0 3.0 9.4 0.0 53.0 23.5
4/22/2018 17.4 4.9 11.5 0.0 58.0 17.7
4/21/2018 18.6 1.6 10.0 0.0 62.0 19.6
4/20/2018 15.7 -0.4 8.0 0.0 61.0 19.2
4/19/2018 14.7 -2.8 6.2 0.0 55.0 23.4
4/18/2018 13.2 -1.1 5.5 0.0 35.0 20.4
4/17/2018 13.4 -3.5 4.8 0.0 27.0 23.1
4/16/2018 9.3 -5.5 1.5 0.0 39.0 24.2
4/15/2018 6.1 -6.5 -0.6 0.0 39.0 23.6
4/14/2018 4.2 -8.6 -2.1 0.0 43.0 20.1
4/13/2018 -0.3 -10.3 -5.0 0.0 46.0 22.3
4/12/2018 1.1 -6.1 -2.1 1.6 64.0 21.5
4/11/2018 4.8 -6.0 -0.3 0.6 56.0 19.6
4/10/2018 4.2 -6.4 -0.9 0.0 75.0 11.9
4/9/2018 2.2 -13.4 -4.7 0.0 61.0 22.2
4/8/2018 -0.7 -14.7 -7.2 0.0 53.0 21.8
4/7/2018 -4.3 -15.9 -9.6 0.0 58.0 22.4
4/6/2018 -6.4 -17.8 -11.8 0.0 64.0 20.5
4/5/2018 -2.5 -12.1 -7.0 1.3 61.0 19.9
4/4/2018 -1.2 -12.9 -6.6 0.0 66.0 18.7
4/3/2018 -4.6 -18.0 -10.9 0.0 52.0 21.3
4/2/2018 -9.3 -18.0 -13.6 0.0 50.0 21.2
4/1/2018 -1.5 -13.6 -7.6 0.0 63.0 20.4
3/31/2018 -8.1 -15.7 -11.3 0.0 58.0 19.0
3/30/2018 -8.7 -17.1 -12.6 0.0 58.0 19.7
3/29/2018 -6.2 -13.8 -8.9 0.0 67.0 15.8
3/28/2018 3.0 -8.5 -4.3 2.0 78.0 14.2
3/27/2018 6.5 -3.0 1.2 0.0 85.0 18.5
3/26/2018 2.0 -1.3 0.3 0.0 91.0 5.2
3/25/2018 1.4 -0.3 0.4 0.0 77.0 4.2
3/24/2018 1.4 -3.1 -0.5 0.0 68.0 5.8
3/23/2018 4.5 -3.9 0.6 0.0 66.0 14.5
3/22/2018 3.7 -1.6 0.8 0.0 81.0 15.9
3/21/2018 1.5 -6.6 -1.5 0.0 89.0 7.8
3/20/2018 -0.4 -6.7 -2.9 0.8 87.0 10.3
3/19/2018 0.5 -4.2 -1.9 0.0 60.0 13.6
3/18/2018 2.0 -3.0 -0.5 0.0 79.0 11.7
3/17/2018 0.7 -14.4 -6.7 0.0 72.0 17.6
3/16/2018 -1.2 -15.0 -8.3 0.0 66.0 17.8
3/15/2018 -2.7 -12.1 -7.5 0.0 60.0 17.6
3/14/2018 -0.7 -12.7 -6.0 0.0 75.0 17.0
3/13/2018 -1.1 -19.3 -8.9 0.0 76.0 15.3
3/12/2018 -2.8 -13.8 -7.4 0.0 73.0 16.8
3/11/2018 -3.3 -9.1 -5.7 0.0 82.0 16.3
3/10/2018 -0.7 -11.2 -5.0 0.8 75.0 7.9
3/9/2018 -6.3 -18.8 -13.4 0.0 83.0 15.3
3/8/2018 -6.0 -19.8 -13.1 0.0 85.0 11.4
3/7/2018 -7.1 -19.1 -13.2 0.0 79.0 15.4
3/6/2018 -1.9 -14.8 -8.0 0.0 64.0 15.4
3/5/2018 1.8 -2.0 -0.5 4.3 81.0 5.4
3/4/2018 3.5 -0.2 1.8 6.0 75.0 4.2
3/3/2018 4.8 -10.0 -1.6 0.0 64.0 12.4
3/2/2018 -1.7 -15.3 -7.6 0.0 76.0 11.1
3/1/2018 2.4 -14.8 -7.1 0.0 84.0 13.9
2/28/2018 -0.7 -12.0 -6.4 0.0 78.0 13.2
2/27/2018 -3.0 -15.9 -9.3 0.0 77.0 13.7
2/26/2018 -0.4 -12.7 -8.3 0.0 79.0 12.3
2/25/2018 -4.4 -15.0 -8.9 0.7 85.0 11.6
2/24/2018 -6.4 -15.9 -10.7 0.3 75.0 11.7
2/23/2018 -9.1 -18.6 -14.6 0.0 79.0 12.3
2/22/2018 -9.3 -20.0 -14.6 0.0 75.0 12.6
2/21/2018 -12.4 -21.7 -17.4 0.0 73.0 11.3
2/20/2018 -13.5 -18.1 -16.0 1.0 73.0 9.6
2/19/2018 -15.1 -23.9 -18.7 0.0 58.0 10.1
2/18/2018 -11.3 -21.8 -16.4 0.0 68.0 7.4
2/17/2018 -9.2 -19.9 -14.3 0.0 71.0 11.0
2/16/2018 -8.3 -22.1 -14.7 0.0 73.0 9.0
2/15/2018 -6.6 -22.8 -19.4 0.0 67.0 10.7
2/14/2018 -0.1 -10.7 -5.1 0.8 78.0 5.7
2/13/2018 -4.3 -21.3 -10.9 0.0 74.0 8.3
2/12/2018 -16.2 -28.9 -22.9 0.0 67.0 10.6
2/11/2018 -14.7 -26.0 -18.5 0.0 74.0 7.7
2/10/2018 -13.0 -24.3 -17.8 0.0 73.0 8.3
2/9/2018 -13.2 -27.9 -20.5 0.0 71.0 9.8
2/8/2018 -16.5 -25.1 -21.0 0.0 75.0 8.9
2/7/2018 -14.7 -25.1 -20.5 0.0 75.0 9.3
2/6/2018 -14.6 -26.6 -21.2 0.0 75.0 6.4
2/5/2018 -15.3 -25.9 -19.4 0.0 69.0 8.5
2/4/2018 -16.1 -31.6 -22.0 0.0 69.0 6.2
2/3/2018 -21.2 -30.8 -23.6 0.2 73.0 7.1
2/2/2018 -16.6 -26.0 -21.5 0.9 77.0 4.9
2/1/2018 -20.2 -26.1 -23.1 0.0 72.0 8.3
1/31/2018 -12.8 -20.9 -18.5 0.0 66.0 6.6
1/30/2018 -2.7 -23.2 -12.3 0.2 79.0 3.6
1/29/2018 -16.2 -23.6 -20.3 0.0 74.0 7.7
1/28/2018 -19.9 -22.5 -21.3 0.0 75.0 7.2
1/27/2018 -8.8 -20.6 -14.5 0.3 77.0 4.6
1/26/2018 -2.5 -9.0 -4.2 0.0 89.0 1.4
1/25/2018 -3.0 -11.9 -6.4 0.0 85.0 2.8
1/24/2018 -4.5 -11.8 -8.3 0.0 84.0 1.8
1/23/2018 -5.5 -7.4 -6.6 0.0 85.0 1.3
1/22/2018 -3.9 -7.9 -5.8 0.0 79.0 2.8
1/21/2018 -6.3 -8.1 -7.5 0.0 82.0 1.5
1/20/2018 0.0 -9.7 -5.6 0.0 92.0 4.7
1/19/2018 3.4 -4.1 0.2 0.0 84.0 3.8
1/18/2018 1.1 -9.1 -5.7 0.0 77.0 2.9
1/17/2018 2.2 -15.0 -7.7 0.0 74.0 6.6
1/16/2018 -14.4 -28.1 -19.7 0.0 68.0 5.1
1/15/2018 -21.6 -27.4 -24.9 0.0 69.0 6.4
1/14/2018 -14.6 -22.4 -18.2 0.8 72.0 3.6
1/13/2018 -19.9 -30.4 -25.1 0.0 71.0 6.4
1/12/2018 -20.1 -30.5 -25.7 0.0 69.0 6.4
1/11/2018 -19.5 -28.1 -23.5 0.5 68.0 5.9
1/10/2018 0.0 -19.8 -10.1 0.3 78.0 2.0
1/9/2018 0.6 -15.4 -5.4 0.0 76.0 3.3
1/8/2018 -4.0 -15.8 -9.9 0.0 78.0 5.7
1/7/2018 -2.1 -10.4 -6.8 0.0 86.0 2.6
1/6/2018 -10.2 -23.8 -15.4 0.1 74.0 1.7
1/5/2018 -20.0 -30.4 -25.3 0.0 73.0 5.0
1/4/2018 -20.8 -29.5 -25.1 0.0 72.0 5.8
1/3/2018 -21.2 -25.9 -22.9 0.0 71.0 4.8
1/2/2018 -13.2 -22.6 -18.0 0.0 70.0 3.5
1/1/2018 -19.9 -29.2 -24.1 0.0 70.0 5.8
12/31/2017 -24.0 -33.2 -29.2 0.0 70.0 5.3
12/30/2017 -28.6 -33.6 -31.3 0.0 69.0 5.6
12/29/2017 -24.4 -29.5 -27.3 0.0 72.0 5.2
12/28/2017 -17.2 -27.9 -21.3 0.5 75.0 3.7
12/27/2017 -22.4 -31.9 -27.0 0.0 68.0 5.3
12/26/2017 -25.2 -30.8 -28.1 0.0 69.0 5.3
12/25/2017 -26.1 -30.1 -27.9 0.0 67.0 5.0
12/24/2017 -20.9 -27.4 -24.6 0.0 73.0 4.7
12/23/2017 -8.6 -25.0 -15.8 0.0 76.0 2.8
12/22/2017 -10.1 -16.5 -12.5 0.4 81.0 2.7
12/21/2017 -16.2 -24.9 -19.4 0.0 78.0 5.5
12/20/2017 -15.8 -22.4 -18.5 0.0 79.0 3.5
12/19/2017 -2.8 -20.0 -10.6 0.0 69.0 3.5
12/18/2017 0.6 -5.0 -2.0 0.0 81.0 2.4
12/17/2017 -3.1 -13.1 -8.1 0.0 82.0 5.4
12/16/2017 -7.6 -12.9 -10.6 0.7 85.0 2.3
12/15/2017 -10.2 -14.3 -11.9 0.7 82.0 2.6
12/14/2017 -8.2 -10.8 -9.6 0.0 81.0 2.4
12/13/2017 -5.9 -10.8 -7.8 0.1 86.0 2.0
12/12/2017 -4.9 -18.6 -9.2 0.0 89.0 2.8
12/11/2017 -2.9 -18.8 -10.6 0.3 81.0 5.3
12/10/2017 -3.9 -7.9 -6.3 1.7 85.0 3.5
12/9/2017 -5.1 -11.1 -7.9 0.0 80.0 2.4
12/8/2017 -0.4 -9.7 -6.7 0.0 81.0 2.8
12/7/2017 -4.2 -15.8 -9.0 0.0 80.0 2.5
12/6/2017 -12.5 -16.8 -14.3 0.1 72.0 4.3
12/5/2017 -12.1 -16.6 -14.0 0.0 76.0 3.2
12/4/2017 -1.2 -13.9 -4.8 1.0 84.0 1.4
12/3/2017 -1.3 -8.2 -3.9 0.0 87.0 3.3
12/2/2017 2.7 -9.5 -3.0 0.0 87.0 5.3
12/1/2017 0.3 -7.7 -3.4 0.0 89.0 3.7
11/30/2017 1.3 -3.0 -0.4 0.0 84.0 3.7
11/29/2017 4.9 -7.8 -0.1 0.4 69.0 2.6
11/28/2017 2.4 -10.7 -4.7 0.0 69.0 4.4
11/27/2017 5.9 -6.1 1.2 1.0 80.0 4.0
11/26/2017 -2.6 -8.6 -6.4 0.0 83.0 2.5
11/25/2017 -3.5 -13.7 -8.6 0.0 77.0 4.9
11/24/2017 3.6 -9.2 0.0 0.0 81.0 5.3
11/23/2017 2.9 -11.9 -4.1 0.0 85.0 4.0
11/22/2017 -6.4 -16.0 -10.8 0.1 84.0 2.9
11/21/2017 -7.3 -14.9 -10.4 0.0 75.0 5.8
11/20/2017 3.2 -9.4 -3.7 0.0 80.0 2.2
11/19/2017 -2.9 -17.4 -10.2 0.0 77.0 5.8
11/18/2017 -9.4 -14.4 -11.4 0.0 76.0 5.2
11/17/2017 -0.3 -14.3 -6.4 0.0 78.0 7.1
11/16/2017 -0.3 -7.9 -5.3 0.0 79.0 2.3
11/15/2017 -2.3 -7.5 -5.6 0.1 83.0 3.6
11/14/2017 1.4 -5.6 -0.9 0.0 92.0 4.1
11/13/2017 1.5 -8.8 -3.9 0.0 81.0 7.5
11/12/2017 -3.7 -9.5 -5.8 0.0 84.0 3.4
11/11/2017 -4.7 -9.3 -6.3 0.6 85.0 4.8
11/10/2017 -6.7 -20.5 -12.4 0.2 72.0 3.5
11/9/2017 -14.3 -21.2 -17.9 0.0 78.0 8.8
11/8/2017 -8.1 -15.1 -10.4 0.3 79.0 4.6
11/7/2017 -6.3 -21.9 -12.9 0.0 79.0 8.6
11/6/2017 -7.7 -19.6 -12.8 0.0 79.0 8.2
11/5/2017 -3.9 -17.9 -7.9 0.0 81.0 7.1
11/4/2017 -0.1 -5.0 -2.6 4.1 90.0 1.6
11/3/2017 -1.1 -9.3 -5.0 0.0 77.0 7.6
11/2/2017 0.3 -5.3 -1.8 0.0 78.0 5.1
11/1/2017 0.5 -4.9 -2.0 0.1 80.0 3.2
10/31/2017 -2.0 -8.7 -4.4 0.0 79.0 5.0